Sekiu, Washington
Current Conditions -  °F | °C
As of 7:53 PM on Saturday 22 Nov 2014 (Local Time) from KUIL Reporting Station
Overcast Overcast  
Wind Chill: 44°   Ceiling: 3100
Heat Index: 44°   Visibility: 7mi
Dew Point: 44°   Wind: 3mph
Humidity: 100%   Direction: 120°ESE
Pressure: 30.03"   Gusts: NA
Location:  48.26°N, 124.3°W
Report Text: KUIL 230353Z AUTO 12003KT 7SM SCT023 BKN031 OVC049 07/07 A3003 RMK AO2 RAB31E49 SLP172 P0001 T00670067
Loading
Personal Weather Stations






























Interactive Weather Map New forecast layout! Learn more

10-Day Weather Forecast

Advertisements
Track Severe Weather on mobile